Time;durP1;ratioP1;P1;durP2;ratioP2;P2;SDS_P1;SDS_P2;PMS_P1;PMS_P2;Temp;Humidity;BMP_temperature;BMP_pressure;BME280_temperature;BME280_humidity;BME280_pressure;Samples;Min_cycle;Max_cycle;Signal;HPM_P1;HPM_P2
2021/07/19 00:00:00;;;;;;;6.97;3.45;;;21.90;87.30;;;;;;5031798;28;20021;-78
2021/07/19 00:02:47;;;;;;;7.43;2.88;;;21.80;87.10;;;;;;5031426;28;20386;-78
2021/07/19 00:05:33;;;;;;;5.82;3.65;;;21.80;86.90;;;;;;5033305;28;20477;-78
2021/07/19 00:08:18;;;;;;;5.68;3.58;;;21.80;86.30;;;;;;5030265;28;20021;-78
2021/07/19 00:11:05;;;;;;;6.65;4.10;;;21.80;85.80;;;;;;5033819;28;20072;-80
2021/07/19 00:13:51;;;;;;;6.32;3.50;;;21.70;86.00;;;;;;5032272;28;20437;-76
2021/07/19 00:16:37;;;;;;;8.25;3.92;;;21.60;85.70;;;;;;5031785;28;20171;-77
2021/07/19 00:19:23;;;;;;;6.55;3.35;;;21.60;85.70;;;;;;5030464;28;20022;-75
2021/07/19 00:22:09;;;;;;;7.78;3.78;;;21.60;85.70;;;;;;5032861;28;20037;-75
2021/07/19 00:24:55;;;;;;;5.40;3.40;;;21.40;85.70;;;;;;5031929;28;20060;-75
2021/07/19 00:27:42;;;;;;;6.25;3.42;;;21.40;86.00;;;;;;5032756;28;20083;-75
2021/07/19 00:30:28;;;;;;;6.90;3.85;;;21.40;86.10;;;;;;5018856;28;20037;-75
2021/07/19 00:33:14;;;;;;;5.90;3.95;;;21.40;85.50;;;;;;5029047;28;20045;-74
2021/07/19 00:36:00;;;;;;;9.50;3.90;;;21.40;85.70;;;;;;5033512;28;20032;-74
2021/07/19 00:38:46;;;;;;;6.93;3.78;;;21.40;85.20;;;;;;5030735;28;20504;-75
2021/07/19 00:41:33;;;;;;;7.10;3.88;;;21.50;85.00;;;;;;5033200;28;20053;-75
2021/07/19 00:44:20;;;;;;;7.05;4.18;;;21.50;84.80;;;;;;5029494;28;20029;-75
2021/07/19 00:47:06;;;;;;;9.57;4.60;;;21.40;84.80;;;;;;5030151;28;20022;-77
2021/07/19 00:49:52;;;;;;;8.07;4.10;;;21.40;84.80;;;;;;5029745;28;20052;-77
2021/07/19 00:52:39;;;;;;;6.57;4.60;;;21.40;84.30;;;;;;5030767;28;20053;-76
2021/07/19 00:55:36;;;;;;;6.60;3.72;;;21.30;84.30;;;;;;5012987;28;20062;-76
2021/07/19 00:58:27;;;;;;;5.72;4.15;;;21.40;84.20;;;;;;5014802;28;20550;-76
2021/07/19 01:01:13;;;;;;;10.63;4.65;;;21.30;84.00;;;;;;5012730;28;20060;-76
2021/07/19 01:04:01;;;;;;;7.78;4.43;;;21.10;83.50;;;;;;5024463;28;20490;-76
2021/07/19 01:06:48;;;;;;;5.88;4.60;;;21.00;83.80;;;;;;5031241;28;20073;-76
2021/07/19 01:09:35;;;;;;;7.60;4.68;;;20.90;84.20;;;;;;5030577;28;20498;-75
2021/07/19 01:12:22;;;;;;;7.72;4.63;;;20.90;83.90;;;;;;5020413;28;20381;-76
2021/07/19 01:15:07;;;;;;;8.88;4.68;;;20.80;83.60;;;;;;5030952;28;20496;-76
2021/07/19 01:17:51;;;;;;;8.77;4.70;;;20.80;83.80;;;;;;5030596;28;20092;-70
2021/07/19 01:20:59;;;;;;;9.32;4.72;;;20.70;83.70;;;;;;5032031;28;20126;-77
2021/07/19 01:24:20;;;;;;;7.60;5.05;;;20.60;84.00;;;;;;5030755;28;20080;-80
2021/07/19 01:27:43;;;;;;;6.88;4.45;;;20.50;84.20;;;;;;5033677;28;20032;-79
2021/07/19 01:30:29;;;;;;;7.60;4.93;;;20.50;84.40;;;;;;5018351;28;20560;-79
2021/07/19 01:33:15;;;;;;;8.48;4.55;;;20.50;84.80;;;;;;5026289;28;20628;-80
2021/07/19 01:36:00;;;;;;;8.82;5.20;;;20.40;85.10;;;;;;5012133;28;20488;-81
2021/07/19 01:38:45;;;;;;;10.15;4.68;;;20.40;85.60;;;;;;5020870;28;20040;-77
2021/07/19 01:41:31;;;;;;;5.82;4.25;;;20.40;85.70;;;;;;5031665;28;20052;-77
2021/07/19 01:44:16;;;;;;;8.05;4.00;;;20.40;86.20;;;;;;5017394;28;20504;-79
2021/07/19 01:47:01;;;;;;;6.80;5.18;;;20.40;86.50;;;;;;5010871;28;20390;-79
2021/07/19 01:49:46;;;;;;;10.23;5.60;;;20.50;86.70;;;;;;5025888;28;20145;-79
2021/07/19 01:52:31;;;;;;;8.40;4.90;;;20.40;86.80;;;;;;5030848;28;20053;-79
2021/07/19 01:55:15;;;;;;;8.45;5.80;;;20.40;87.10;;;;;;5030011;28;20037;-78
2021/07/19 01:58:00;;;;;;;8.43;4.97;;;20.40;87.00;;;;;;5031588;28;20045;-79
2021/07/19 02:00:45;;;;;;;9.80;4.65;;;20.50;87.00;;;;;;5016757;28;20397;-79
2021/07/19 02:03:30;;;;;;;9.15;4.78;;;20.60;87.00;;;;;;5029714;28;20129;-78
2021/07/19 02:06:14;;;;;;;8.60;4.83;;;20.60;86.90;;;;;;5031312;28;20044;-79
2021/07/19 02:09:03;;;;;;;6.90;4.63;;;20.60;86.20;;;;;;5015478;28;20052;-79
2021/07/19 02:11:48;;;;;;;7.95;4.70;;;20.50;86.20;;;;;;5031487;28;20520;-79
2021/07/19 02:14:33;;;;;;;7.28;4.70;;;20.50;86.00;;;;;;5029693;28;20040;-79
2021/07/19 02:17:19;;;;;;;6.32;4.10;;;20.50;86.10;;;;;;5030974;28;20095;-77
2021/07/19 02:20:08;;;;;;;9.43;4.95;;;20.50;86.00;;;;;;5029930;28;20396;-78
2021/07/19 02:22:53;;;;;;;7.10;4.82;;;20.40;85.80;;;;;;5030307;28;20039;-77
2021/07/19 02:25:40;;;;;;;9.07;4.43;;;20.40;85.70;;;;;;5011729;28;20061;-78
2021/07/19 02:28:25;;;;;;;8.40;5.30;;;20.40;85.30;;;;;;5012151;28;20029;-77
2021/07/19 02:31:11;;;;;;;7.85;4.43;;;20.40;85.60;;;;;;5030642;28;20080;-78
2021/07/19 02:33:56;;;;;;;11.23;5.22;;;20.40;85.60;;;;;;5029400;28;20047;-77
2021/07/19 02:36:40;;;;;;;7.60;4.25;;;20.40;85.60;;;;;;5028442;28;20072;-77
2021/07/19 02:39:26;;;;;;;9.25;4.75;;;20.40;85.20;;;;;;5030073;28;20092;-78
2021/07/19 02:42:10;;;;;;;8.63;4.68;;;20.30;85.50;;;;;;5030985;28;20180;-78
2021/07/19 02:44:55;;;;;;;9.43;4.50;;;20.20;85.20;;;;;;5033287;28;20045;-78
2021/07/19 02:47:40;;;;;;;13.02;5.75;;;20.20;85.30;;;;;;5034827;28;20123;-78
2021/07/19 02:50:26;;;;;;;10.73;5.13;;;20.20;85.00;;;;;;5032987;28;20094;-78
2021/07/19 02:53:14;;;;;;;7.10;4.53;;;20.20;84.50;;;;;;5034045;28;20408;-79
2021/07/19 02:56:00;;;;;;;8.15;5.07;;;20.10;85.10;;;;;;5015022;28;20037;-77
2021/07/19 02:58:44;;;;;;;8.23;4.10;;;20.00;84.80;;;;;;5017624;28;20040;-77
2021/07/19 03:01:31;;;;;;;7.13;4.50;;;19.90;84.90;;;;;;5034349;28;20060;-77
2021/07/19 03:04:15;;;;;;;10.05;4.47;;;20.00;84.90;;;;;;5031730;28;20180;-78
2021/07/19 03:07:00;;;;;;;12.15;4.28;;;19.90;84.70;;;;;;5034929;28;20032;-77
2021/07/19 03:09:45;;;;;;;11.65;4.20;;;19.90;85.00;;;;;;5022007;28;20129;-77
2021/07/19 03:12:35;;;;;;;9.63;4.50;;;19.80;85.20;;;;;;5022872;28;20099;-78
2021/07/19 03:15:19;;;;;;;8.73;4.57;;;19.70;85.10;;;;;;5032750;28;20032;-78
2021/07/19 03:18:06;;;;;;;7.10;3.73;;;19.60;85.40;;;;;;5034413;28;20072;-77
2021/07/19 03:20:55;;;;;;;10.88;4.72;;;19.50;85.50;;;;;;5034170;28;20347;-77
2021/07/19 03:23:42;;;;;;;7.85;4.30;;;19.50;85.20;;;;;;5031081;28;20037;-77
2021/07/19 03:26:29;;;;;;;11.18;4.47;;;19.50;85.20;;;;;;5033542;28;20122;-76
2021/07/19 03:29:17;;;;;;;12.68;4.32;;;19.50;85.60;;;;;;5031514;28;20068;-76
2021/07/19 03:32:05;;;;;;;8.93;4.60;;;19.40;85.60;;;;;;5032480;28;20065;-77
2021/07/19 03:34:53;;;;;;;9.63;4.50;;;19.40;85.70;;;;;;5032120;28;20444;-77
2021/07/19 03:37:40;;;;;;;10.05;4.28;;;19.30;85.80;;;;;;5033265;28;20030;-77
2021/07/19 03:40:27;;;;;;;10.48;4.57;;;19.40;85.80;;;;;;5030701;28;20389;-77
2021/07/19 03:43:13;;;;;;;9.75;4.85;;;19.30;85.10;;;;;;5031847;28;20508;-78
2021/07/19 03:46:00;;;;;;;9.55;3.75;;;19.30;85.10;;;;;;5015625;28;20081;-79
2021/07/19 03:48:46;;;;;;;8.98;4.03;;;19.20;84.90;;;;;;5028521;28;20518;-78
2021/07/19 03:51:33;;;;;;;7.22;3.78;;;19.10;85.20;;;;;;5013228;28;20470;-80
2021/07/19 03:54:19;;;;;;;10.57;3.75;;;19.10;84.90;;;;;;5018773;28;20033;-79
2021/07/19 03:57:05;;;;;;;9.60;4.05;;;19.00;85.40;;;;;;5033965;28;20393;-78
2021/07/19 03:59:52;;;;;;;8.77;3.50;;;18.90;85.00;;;;;;5030995;28;20417;-79
2021/07/19 04:02:39;;;;;;;8.45;3.85;;;18.90;85.10;;;;;;5030947;28;20378;-77
2021/07/19 04:05:27;;;;;;;9.75;3.97;;;19.00;85.50;;;;;;5030886;28;20138;-79
2021/07/19 04:08:13;;;;;;;9.20;3.65;;;19.00;85.20;;;;;;5031557;28;20155;-79
2021/07/19 04:10:59;;;;;;;10.52;3.90;;;19.00;84.70;;;;;;5019999;28;20044;-79
2021/07/19 04:13:46;;;;;;;14.13;4.57;;;18.90;84.30;;;;;;5044285;28;20053;-81
2021/07/19 04:16:32;;;;;;;8.23;3.78;;;18.90;84.10;;;;;;5030626;28;20167;-80
2021/07/19 04:19:19;;;;;;;8.50;3.35;;;18.80;84.50;;;;;;5031045;28;20426;-80
2021/07/19 04:22:05;;;;;;;9.30;3.40;;;18.80;84.70;;;;;;5032064;28;20025;-81
2021/07/19 04:24:51;;;;;;;10.02;3.80;;;18.80;84.60;;;;;;5030899;28;20071;-80
2021/07/19 04:27:38;;;;;;;10.15;3.78;;;18.80;84.30;;;;;;5032842;28;20026;-79
2021/07/19 04:30:34;;;;;;;9.98;3.65;;;18.70;84.20;;;;;;5031051;28;20061;-80
2021/07/19 04:33:22;;;;;;;9.57;3.80;;;18.60;84.10;;;;;;5027603;28;20083;-73
2021/07/19 04:36:08;;;;;;;8.25;3.55;;;18.60;84.10;;;;;;5013777;28;20030;-73
2021/07/19 04:38:54;;;;;;;10.60;3.53;;;18.70;84.40;;;;;;5017057;28;20048;-71
2021/07/19 04:41:40;;;;;;;10.30;3.90;;;18.70;84.20;;;;;;5031171;28;20071;-74
2021/07/19 04:44:26;;;;;;;11.55;4.95;;;18.80;83.70;;;;;;5030554;28;20478;-79
2021/07/19 04:47:12;;;;;;;8.85;3.53;;;18.80;83.50;;;;;;5032220;28;20112;-73
2021/07/19 04:49:57;;;;;;;9.45;3.70;;;18.90;84.10;;;;;;5029822;28;20137;-74
2021/07/19 04:52:44;;;;;;;10.20;3.67;;;18.80;83.30;;;;;;5032233;28;20608;-73
2021/07/19 04:55:32;;;;;;;11.85;4.00;;;18.80;83.30;;;;;;5030998;28;20037;-73
2021/07/19 04:58:21;;;;;;;12.57;4.03;;;18.90;83.30;;;;;;5029865;28;20057;-73
2021/07/19 05:01:08;;;;;;;12.38;4.53;;;18.90;83.50;;;;;;5010450;28;20028;-73
2021/07/19 05:03:56;;;;;;;10.90;3.40;;;19.00;83.60;;;;;;5027748;28;20072;-73
2021/07/19 05:06:47;;;;;;;8.82;4.00;;;19.00;83.80;;;;;;5031129;28;20144;-73
2021/07/19 05:09:40;;;;;;;12.35;4.68;;;19.00;83.50;;;;;;5029271;28;20037;-73
2021/07/19 05:12:29;;;;;;;9.98;3.90;;;18.90;82.70;;;;;;5027252;28;20033;-74
2021/07/19 05:15:14;;;;;;;11.18;4.97;;;18.90;83.00;;;;;;5026769;28;20480;-74
2021/07/19 05:17:59;;;;;;;9.60;4.00;;;18.90;82.90;;;;;;5032120;28;20083;-73
2021/07/19 05:20:44;;;;;;;14.98;5.47;;;19.00;82.80;;;;;;4997545;28;20037;-76
2021/07/19 05:23:29;;;;;;;10.25;4.00;;;19.10;82.80;;;;;;5012033;28;20277;-74
2021/07/19 05:26:16;;;;;;;8.53;3.57;;;19.10;83.10;;;;;;5020234;28;20036;-74
2021/07/19 05:29:00;;;;;;;7.75;3.60;;;19.20;82.90;;;;;;5030097;28;20881;-72
2021/07/19 05:31:44;;;;;;;6.78;3.03;;;19.20;82.70;;;;;;5028241;28;20064;-75
2021/07/19 05:34:28;;;;;;;10.38;4.15;;;19.30;83.10;;;;;;5027530;28;20087;-75
2021/07/19 05:37:12;;;;;;;13.50;4.10;;;19.40;82.40;;;;;;5029878;28;20528;-74
2021/07/19 05:39:56;;;;;;;10.13;4.60;;;19.40;82.20;;;;;;5028516;28;20116;-74
2021/07/19 05:42:41;;;;;;;8.77;3.67;;;19.50;81.90;;;;;;5022575;28;20468;-75
2021/07/19 05:45:25;;;;;;;10.77;4.35;;;19.50;82.10;;;;;;5028866;28;20036;-75
2021/07/19 05:48:10;;;;;;;10.55;4.10;;;19.60;82.20;;;;;;5030797;28;20111;-73
2021/07/19 05:50:54;;;;;;;11.02;4.85;;;19.60;81.00;;;;;;5023812;28;20115;-74
2021/07/19 05:53:39;;;;;;;9.93;4.13;;;19.70;81.40;;;;;;5017739;28;20112;-74
2021/07/19 05:56:22;;;;;;;15.32;4.20;;;19.70;80.30;;;;;;5030134;28;20106;-74
2021/07/19 05:59:06;;;;;;;13.70;5.03;;;19.70;80.40;;;;;;5029879;28;20465;-75
2021/07/19 06:01:50;;;;;;;9.48;4.20;;;19.90;81.60;;;;;;5029121;28;20027;-74
2021/07/19 06:04:35;;;;;;;11.95;4.93;;;20.00;80.50;;;;;;5028505;28;20095;-74
2021/07/19 06:07:19;;;;;;;11.82;4.63;;;20.10;79.10;;;;;;5030650;28;20032;-75
2021/07/19 06:10:06;;;;;;;9.53;4.53;;;20.10;79.70;;;;;;5023260;28;20171;-74
2021/07/19 06:12:50;;;;;;;7.68;4.90;;;20.10;78.70;;;;;;5016595;28;20084;-74
2021/07/19 06:15:34;;;;;;;10.88;5.47;;;20.20;80.00;;;;;;5027041;28;20033;-75
2021/07/19 06:18:18;;;;;;;7.97;4.77;;;20.40;80.10;;;;;;5030075;28;20112;-73
2021/07/19 06:21:03;;;;;;;10.80;5.18;;;20.40;78.30;;;;;;5000751;28;20096;-73
2021/07/19 06:23:47;;;;;;;8.10;4.95;;;20.50;79.00;;;;;;5018851;28;20501;-73
2021/07/19 06:26:31;;;;;;;12.80;5.93;;;20.50;77.40;;;;;;5035474;28;20060;-76
2021/07/19 06:29:16;;;;;;;9.00;4.70;;;20.50;77.90;;;;;;5033718;28;20090;-72
2021/07/19 06:32:01;;;;;;;9.45;4.50;;;20.60;78.10;;;;;;5033224;28;20059;-69
2021/07/19 06:34:45;;;;;;;11.57;6.15;;;20.70;76.70;;;;;;5037087;28;20044;-71
2021/07/19 06:37:29;;;;;;;11.10;5.30;;;20.70;77.20;;;;;;5035452;28;20392;-73
2021/07/19 06:40:13;;;;;;;7.47;5.18;;;20.60;76.70;;;;;;5018874;28;20491;-72
2021/07/19 06:42:58;;;;;;;11.32;5.55;;;20.60;76.30;;;;;;5034239;28;20040;-72
2021/07/19 06:45:46;;;;;;;15.67;5.10;;;20.70;77.60;;;;;;5034523;28;20036;-70
2021/07/19 06:48:30;;;;;;;10.95;4.47;;;20.80;77.60;;;;;;5031829;28;20859;-72
2021/07/19 06:51:14;;;;;;;11.40;4.95;;;20.90;77.50;;;;;;5034508;28;20560;-72
2021/07/19 06:53:58;;;;;;;8.90;5.13;;;21.00;76.70;;;;;;5033440;28;20583;-71
2021/07/19 06:56:43;;;;;;;8.45;5.28;;;20.90;76.30;;;;;;5034738;28;20044;-74
2021/07/19 06:59:27;;;;;;;12.32;5.65;;;20.90;76.90;;;;;;5028926;28;20037;-70
2021/07/19 07:02:11;;;;;;;8.98;5.38;;;21.00;76.60;;;;;;5027489;28;20033;-70
2021/07/19 07:04:55;;;;;;;8.20;4.88;;;21.10;76.00;;;;;;5020875;28;20087;-71
2021/07/19 07:07:39;;;;;;;10.70;5.15;;;21.10;74.90;;;;;;5040404;28;20044;-70
2021/07/19 07:10:23;;;;;;;9.70;5.20;;;21.10;74.90;;;;;;5028421;28;20051;-71
2021/07/19 07:13:10;;;;;;;11.98;5.85;;;21.20;75.40;;;;;;5030967;28;20468;-71
2021/07/19 07:15:55;;;;;;;9.93;4.75;;;21.20;74.70;;;;;;5031440;28;20037;-71
2021/07/19 07:18:39;;;;;;;8.40;5.17;;;21.30;74.70;;;;;;5028140;28;20120;-71
2021/07/19 07:21:25;;;;;;;11.50;6.30;;;21.40;75.10;;;;;;5029342;28;20393;-71
2021/07/19 07:24:10;;;;;;;9.32;4.82;;;21.50;75.60;;;;;;5026116;28;20036;-71
2021/07/19 07:26:56;;;;;;;9.82;5.03;;;21.60;74.30;;;;;;5023398;28;20067;-71
2021/07/19 07:29:42;;;;;;;10.50;5.10;;;21.60;73.70;;;;;;5028678;28;20025;-71
2021/07/19 07:32:28;;;;;;;11.27;5.85;;;21.70;74.60;;;;;;5035190;28;20099;-71
2021/07/19 07:35:14;;;;;;;9.73;5.43;;;21.80;74.40;;;;;;5027338;28;20022;-71
2021/07/19 07:38:00;;;;;;;9.48;5.35;;;22.00;74.40;;;;;;5021277;28;20038;-73
2021/07/19 07:40:48;;;;;;;8.90;5.28;;;22.20;73.50;;;;;;5028105;28;20030;-70
2021/07/19 07:43:34;;;;;;;9.30;5.10;;;22.20;72.80;;;;;;5038275;28;20021;-71
2021/07/19 07:46:19;;;;;;;8.45;4.80;;;22.30;72.10;;;;;;5031929;28;20389;-71
2021/07/19 07:49:05;;;;;;;10.25;4.63;;;22.40;71.70;;;;;;5029591;28;20062;-71
2021/07/19 07:51:51;;;;;;;9.35;5.10;;;22.40;69.90;;;;;;5021242;28;20068;-71
2021/07/19 07:54:37;;;;;;;8.25;4.93;;;22.40;69.90;;;;;;5027494;28;20037;-71
2021/07/19 07:57:23;;;;;;;12.50;6.13;;;22.50;70.90;;;;;;5023858;28;20017;-71
2021/07/19 08:00:14;;;;;;;8.63;4.53;;;22.50;71.30;;;;;;5023276;28;20044;-71
2021/07/19 08:03:00;;;;;;;13.68;6.22;;;22.70;69.40;;;;;;5030026;28;20025;-71
2021/07/19 08:05:46;;;;;;;11.32;5.53;;;22.80;69.90;;;;;;5020353;28;20048;-71
2021/07/19 08:08:32;;;;;;;9.60;5.05;;;22.90;69.20;;;;;;5028001;28;20767;-70
2021/07/19 08:11:18;;;;;;;8.98;5.10;;;22.90;68.90;;;;;;5029633;28;20120;-71
2021/07/19 08:14:04;;;;;;;9.00;6.10;;;23.00;68.90;;;;;;5024643;28;20025;-71
2021/07/19 08:16:50;;;;;;;9.50;5.45;;;23.20;69.40;;;;;;5036189;28;20037;-71
2021/07/19 08:19:36;;;;;;;9.82;5.05;;;23.20;67.90;;;;;;5034299;28;20040;-71
2021/07/19 08:22:26;;;;;;;7.03;4.65;;;23.30;67.60;;;;;;5025613;28;20068;-71
2021/07/19 08:25:12;;;;;;;8.60;4.97;;;23.40;66.70;;;;;;5021083;28;20397;-71
2021/07/19 08:27:57;;;;;;;7.68;5.30;;;23.50;66.30;;;;;;5029225;28;20029;-71
2021/07/19 08:30:43;;;;;;;10.57;5.43;;;23.50;65.60;;;;;;5025212;28;20056;-71
2021/07/19 08:33:29;;;;;;;7.85;4.55;;;23.50;64.70;;;;;;5022608;28;20041;-71
2021/07/19 08:36:15;;;;;;;7.40;4.88;;;23.40;64.50;;;;;;5030446;28;20044;-71
2021/07/19 08:39:02;;;;;;;6.32;4.43;;;23.40;62.90;;;;;;5028084;28;20584;-70
2021/07/19 08:41:48;;;;;;;9.52;5.55;;;23.30;63.50;;;;;;5029954;28;20037;-70
2021/07/19 08:44:34;;;;;;;7.55;4.82;;;23.20;62.70;;;;;;5030922;28;20033;-70
2021/07/19 08:47:20;;;;;;;7.93;4.90;;;23.30;62.60;;;;;;5031953;28;20044;-70
2021/07/19 08:50:08;;;;;;;8.70;4.72;;;23.30;61.70;;;;;;5053012;28;20037;-70
2021/07/19 08:52:55;;;;;;;10.98;5.50;;;23.30;61.20;;;;;;5038673;28;20032;-70
2021/07/19 08:55:42;;;;;;;8.50;4.95;;;23.30;61.80;;;;;;5031834;28;20017;-70
2021/07/19 08:58:28;;;;;;;8.55;5.22;;;23.20;62.50;;;;;;5046377;28;20417;-69
2021/07/19 09:01:14;;;;;;;10.35;5.80;;;23.20;63.20;;;;;;5050954;28;20112;-69
2021/07/19 09:04:00;;;;;;;9.57;5.38;;;23.20;62.30;;;;;;5046543;28;20032;-69
2021/07/19 09:06:46;;;;;;;9.77;5.43;;;23.20;62.60;;;;;;5032910;28;20026;-69
2021/07/19 09:09:34;;;;;;;11.20;5.10;;;23.20;62.70;;;;;;5032692;28;20037;-69
2021/07/19 09:12:35;;;;;;;7.63;5.15;;;23.20;63.30;;;;;;5031847;28;20033;-69
2021/07/19 09:15:01;;;;;;;10.80;6.13;;;23.10;61.50;;;;;;5031010;28;20481;-69
2021/07/19 09:17:54;;;;;;;;;;;23.10;62.30;;;;;;5031389;28;20036;-69
2021/07/19 09:20:40;;;;;;;9.70;4.97;;;23.00;62.10;;;;;;5031369;28;19935;-70
2021/07/19 09:23:27;;;;;;;7.32;4.50;;;23.00;62.90;;;;;;5030503;28;20091;-70
2021/07/19 09:26:11;;;;;;;6.78;4.43;;;23.20;62.20;;;;;;5027140;28;20095;-69
2021/07/19 09:28:59;;;;;;;7.53;4.30;;;23.30;62.10;;;;;;5044080;28;20120;-69
2021/07/19 09:31:49;;;;;;;8.68;4.85;;;23.30;61.00;;;;;;5050885;28;20048;-70
2021/07/19 09:34:33;;;;;;;9.88;4.70;;;23.30;62.10;;;;;;5032461;28;20504;-69
2021/07/19 09:37:18;;;;;;;8.82;4.85;;;23.30;62.70;;;;;;5031002;28;20056;-70
2021/07/19 09:40:07;;;;;;;8.82;5.15;;;23.30;62.10;;;;;;5030851;28;20052;-69
2021/07/19 09:42:52;;;;;;;6.30;4.55;;;23.20;60.50;;;;;;5030980;28;20091;-70
2021/07/19 09:45:36;;;;;;;6.93;4.45;;;23.20;61.10;;;;;;5031447;28;20032;-69
2021/07/19 09:48:22;;;;;;;8.80;4.97;;;23.10;61.30;;;;;;5017331;28;20120;-69
2021/07/19 09:51:06;;;;;;;6.47;4.28;;;23.00;61.50;;;;;;5027438;28;20054;-74
2021/07/19 09:53:50;;;;;;;8.57;5.40;;;23.00;60.70;;;;;;5031159;28;20032;-70
2021/07/19 09:56:34;;;;;;;10.35;4.55;;;22.90;61.20;;;;;;5031527;28;20420;-70
2021/07/19 09:59:18;;;;;;;9.20;5.30;;;22.80;62.20;;;;;;5030827;28;20075;-70
2021/07/19 10:02:02;;;;;;;6.35;4.55;;;22.80;62.80;;;;;;5025078;28;20567;-70
2021/07/19 10:04:46;;;;;;;8.27;5.38;;;22.90;62.40;;;;;;5029789;28;20040;-70
2021/07/19 10:07:30;;;;;;;6.80;4.30;;;23.00;62.70;;;;;;5043147;28;20072;-70
2021/07/19 10:10:16;;;;;;;7.75;4.28;;;23.10;62.50;;;;;;5030632;28;20052;-71
2021/07/19 10:13:02;;;;;;;7.47;4.30;;;23.20;63.10;;;;;;5031637;28;20083;-70
2021/07/19 10:15:47;;;;;;;9.65;4.72;;;23.30;63.70;;;;;;5026850;28;20040;-70
2021/07/19 10:18:34;;;;;;;;;;;23.30;62.80;;;;;;5019042;28;20477;-70
2021/07/19 10:21:19;;;;;;;8.18;4.70;;;23.20;62.70;;;;;;5027532;28;19916;-70
2021/07/19 10:24:06;;;;;;;7.18;4.28;;;23.20;62.90;;;;;;5028644;28;20052;-71
2021/07/19 10:26:50;;;;;;;6.55;4.00;;;23.10;62.70;;;;;;5020637;28;20123;-70
2021/07/19 10:29:35;;;;;;;6.75;4.43;;;23.00;63.30;;;;;;5028941;28;20164;-71
2021/07/19 10:32:23;;;;;;;6.95;4.43;;;23.00;63.20;;;;;;5027370;28;20095;-70
2021/07/19 10:35:08;;;;;;;12.40;4.45;;;22.80;62.30;;;;;;5029078;28;20504;-70
2021/07/19 10:38:01;;;;;;;6.47;4.25;;;22.60;61.90;;;;;;5005246;28;20087;-71
2021/07/19 10:40:51;;;;;;;7.28;4.32;;;22.40;63.40;;;;;;5025881;28;20037;-70
2021/07/19 10:43:36;;;;;;;9.10;4.90;;;22.40;63.70;;;;;;5023724;28;20033;-71
2021/07/19 10:46:26;;;;;;;11.45;4.57;;;22.40;63.50;;;;;;5028303;28;20032;-75
2021/07/19 10:49:14;;;;;;;7.10;4.40;;;22.30;64.80;;;;;;5022859;28;20068;-72
2021/07/19 10:52:09;;;;;;;8.50;3.80;;;22.40;64.90;;;;;;5023857;28;20475;-70
2021/07/19 10:54:54;;;;;;;7.18;4.72;;;22.50;65.00;;;;;;5029863;28;20535;-71
2021/07/19 10:57:41;;;;;;;6.43;4.32;;;22.50;65.10;;;;;;5026775;28;20506;-70
2021/07/19 11:00:26;;;;;;;7.78;4.50;;;22.50;65.00;;;;;;5022643;28;20033;-70
2021/07/19 11:03:12;;;;;;;5.82;4.28;;;22.40;65.90;;;;;;5019545;28;20041;-71
2021/07/19 11:06:00;;;;;;;7.82;4.35;;;22.40;65.70;;;;;;5039149;28;20044;-70
2021/07/19 11:08:48;;;;;;;8.27;4.78;;;22.40;65.90;;;;;;5030384;28;20100;-70
2021/07/19 11:11:40;;;;;;;8.20;3.90;;;22.40;66.10;;;;;;5025305;28;20063;-70
2021/07/19 11:14:24;;;;;;;7.15;3.97;;;22.40;66.40;;;;;;5025753;28;20098;-71
2021/07/19 11:17:09;;;;;;;6.10;3.70;;;22.40;66.40;;;;;;5030955;28;20033;-71
2021/07/19 11:19:56;;;;;;;7.93;4.03;;;22.50;65.60;;;;;;5016566;28;20072;-71
2021/07/19 11:22:43;;;;;;;9.55;4.00;;;22.50;65.00;;;;;;5030601;28;20045;-73
2021/07/19 11:25:40;;;;;;;8.25;3.88;;;22.50;65.60;;;;;;5030306;28;20059;-71
2021/07/19 11:28:38;;;;;;;5.35;3.30;;;22.50;64.10;;;;;;5033052;28;20026;-69
2021/07/19 11:31:29;;;;;;;7.88;3.75;;;22.40;63.60;;;;;;5026853;28;20140;-71
2021/07/19 11:34:23;;;;;;;5.65;3.22;;;22.50;63.80;;;;;;5030378;28;20021;-69
2021/07/19 11:37:09;;;;;;;6.93;3.58;;;22.40;64.30;;;;;;5027616;28;20029;-70
2021/07/19 11:39:55;;;;;;;6.55;2.97;;;22.50;64.30;;;;;;5025527;28;20443;-69
2021/07/19 11:42:43;;;;;;;5.13;3.20;;;22.50;63.60;;;;;;5029658;28;20037;-69
2021/07/19 11:45:38;;;;;;;9.23;3.47;;;22.50;64.10;;;;;;5024960;28;20391;-70
2021/07/19 11:48:25;;;;;;;5.32;2.70;;;22.60;64.10;;;;;;5026632;28;20053;-69
2021/07/19 11:51:11;;;;;;;8.48;4.22;;;22.80;63.00;;;;;;5017664;28;20045;-70
2021/07/19 11:53:58;;;;;;;5.03;2.80;;;22.90;63.80;;;;;;5026242;28;20041;-70
2021/07/19 11:56:52;;;;;;;4.97;2.95;;;23.10;63.50;;;;;;5017993;28;20393;-70
2021/07/19 11:59:38;;;;;;;5.80;3.25;;;23.20;63.60;;;;;;5022959;28;20026;-70
2021/07/19 12:02:26;;;;;;;7.05;3.50;;;23.30;63.20;;;;;;5054136;28;20489;-70
2021/07/19 12:05:14;;;;;;;5.55;3.17;;;23.50;61.90;;;;;;5042300;28;20033;-70
2021/07/19 12:08:05;;;;;;;6.13;3.25;;;23.50;60.60;;;;;;5048944;28;20528;-70
2021/07/19 12:10:53;;;;;;;7.35;4.00;;;23.60;62.50;;;;;;5050438;28;20074;-70
2021/07/19 12:13:41;;;;;;;9.45;5.00;;;23.60;62.00;;;;;;5046250;28;20021;-70
2021/07/19 12:16:39;;;;;;;6.95;3.58;;;23.80;63.00;;;;;;5049201;28;20033;-70
2021/07/19 12:19:26;;;;;;;16.30;4.35;;;24.00;62.10;;;;;;5045353;28;20017;-70
2021/07/19 12:22:12;;;;;;;6.25;3.15;;;24.10;62.00;;;;;;5048316;28;20026;-70
2021/07/19 12:24:58;;;;;;;7.57;3.78;;;24.10;62.20;;;;;;5045090;28;20025;-70
2021/07/19 12:27:57;;;;;;;5.47;3.38;;;24.20;62.00;;;;;;5051052;28;20094;-70
2021/07/19 12:30:43;;;;;;;10.35;3.05;;;24.10;60.60;;;;;;5048853;28;20041;-70
2021/07/19 12:33:29;;;;;;;6.70;3.28;;;24.00;61.10;;;;;;5049860;28;20041;-70
2021/07/19 12:36:20;;;;;;;5.35;3.30;;;24.00;60.60;;;;;;5049055;28;20033;-70
2021/07/19 12:39:15;;;;;;;4.57;3.45;;;23.70;60.60;;;;;;5049614;28;20032;-70
2021/07/19 12:42:11;;;;;;;6.13;3.58;;;23.70;61.60;;;;;;5052304;28;20040;-70
2021/07/19 12:44:59;;;;;;;5.72;3.40;;;23.60;61.70;;;;;;5048923;28;20040;-70
2021/07/19 12:47:45;;;;;;;6.65;3.40;;;23.60;61.00;;;;;;5051356;28;20386;-70
2021/07/19 12:50:31;;;;;;;5.57;3.30;;;23.50;61.30;;;;;;5048888;28;20112;-70
2021/07/19 12:53:17;;;;;;;5.95;3.55;;;23.60;61.30;;;;;;5050733;28;20449;-70
2021/07/19 12:56:11;;;;;;;6.75;3.50;;;23.70;61.80;;;;;;5033096;28;20029;-70
2021/07/19 12:58:59;;;;;;;7.63;3.85;;;23.70;61.10;;;;;;5037138;28;20036;-70
2021/07/19 13:01:48;;;;;;;6.97;3.30;;;23.70;60.50;;;;;;5050619;28;20013;-70
2021/07/19 13:04:33;;;;;;;6.45;3.17;;;23.60;59.80;;;;;;5036740;28;20107;-70
2021/07/19 13:07:30;;;;;;;4.75;3.35;;;23.60;60.40;;;;;;5052288;28;20401;-69
2021/07/19 13:10:23;;;;;;;6.38;3.58;;;23.60;60.90;;;;;;5048147;28;20477;-69
2021/07/19 13:13:09;;;;;;;7.32;3.03;;;23.70;60.40;;;;;;5051261;28;20032;-70
2021/07/19 13:15:46;;;;;;;7.43;4.03;;;23.70;60.70;;;;;;5032622;28;20057;-70
2021/07/19 13:18:32;;;;;;;;;;;23.70;60.20;;;;;;5033908;28;20402;-69
2021/07/19 13:21:21;;;;;;;9.68;5.38;;;23.70;61.00;;;;;;5051692;28;20439;-70
2021/07/19 13:24:15;;;;;;;5.57;3.80;;;23.80;61.70;;;;;;5049743;28;20044;-69
2021/07/19 13:27:04;;;;;;;7.32;4.63;;;23.90;59.50;;;;;;5047841;28;20058;-69
2021/07/19 13:29:55;;;;;;;7.10;4.18;;;23.90;60.40;;;;;;5044131;28;20106;-70
2021/07/19 13:32:40;;;;;;;7.05;4.13;;;23.90;60.90;;;;;;5016609;28;20183;-69
2021/07/19 13:35:34;;;;;;;7.32;3.53;;;23.90;60.20;;;;;;5049096;28;20040;-70
2021/07/19 13:38:18;;;;;;;5.13;4.00;;;23.80;60.10;;;;;;5033026;28;20516;-70
2021/07/19 13:41:03;;;;;;;7.38;5.15;;;23.80;59.90;;;;;;5037807;28;20095;-70
2021/07/19 13:43:47;;;;;;;6.25;4.95;;;23.70;59.60;;;;;;5035079;28;20048;-70
2021/07/19 13:46:31;;;;;;;5.97;5.18;;;23.60;58.90;;;;;;5051525;28;20068;-70
2021/07/19 13:49:15;;;;;;;5.75;4.80;;;23.30;59.20;;;;;;5048316;28;20109;-69
2021/07/19 13:51:59;;;;;;;7.60;5.10;;;23.20;59.40;;;;;;5049711;28;20048;-70
2021/07/19 13:54:43;;;;;;;7.20;4.82;;;23.10;59.60;;;;;;5049741;28;20036;-69
2021/07/19 13:57:27;;;;;;;7.05;4.90;;;23.10;60.10;;;;;;5051261;28;20122;-70
2021/07/19 14:00:16;;;;;;;8.17;4.10;;;23.00;60.40;;;;;;5049745;28;20500;-69
2021/07/19 14:03:01;;;;;;;8.85;4.40;;;23.00;60.50;;;;;;5051321;28;20181;-70
2021/07/19 14:05:45;;;;;;;7.35;4.50;;;23.00;60.20;;;;;;5050591;28;20094;-70
2021/07/19 14:08:30;;;;;;;7.30;4.03;;;23.00;60.50;;;;;;5049659;28;20163;-70
2021/07/19 14:11:14;;;;;;;6.05;3.55;;;23.00;60.30;;;;;;5048348;28;20063;-69
2021/07/19 14:13:58;;;;;;;7.00;4.07;;;22.90;60.50;;;;;;5030559;28;20520;-70
2021/07/19 14:16:42;;;;;;;7.68;3.53;;;22.90;60.90;;;;;;5031613;28;20100;-70
2021/07/19 14:19:26;;;;;;;6.57;3.60;;;22.90;61.60;;;;;;5040422;28;20082;-70
2021/07/19 14:22:12;;;;;;;7.38;4.15;;;22.90;61.50;;;;;;5050082;28;20089;-71
2021/07/19 14:24:56;;;;;;;6.32;3.92;;;23.00;62.10;;;;;;5049089;28;20562;-70